createdAt,value
2019-06-20T00:07:48.566Z,2.33
2019-06-20T00:17:48.463Z,2.24
2019-06-20T00:27:48.707Z,1.59
2019-06-20T00:37:48.566Z,2.28
2019-06-20T00:47:48.658Z,3.09
2019-06-20T00:57:48.525Z,2.96
2019-06-20T01:07:48.780Z,3.19
2019-06-20T01:17:48.538Z,2.72
2019-06-20T01:27:48.543Z,2.13
2019-06-20T01:37:48.595Z,2.50
2019-06-20T01:47:48.572Z,3.05
2019-06-20T01:57:48.427Z,2.53
2019-06-20T02:07:48.476Z,3.09
2019-06-20T02:17:48.557Z,2.54
2019-06-20T02:27:48.515Z,2.92
2019-06-20T02:37:48.509Z,3.43
2019-06-20T02:47:48.585Z,3.54
2019-06-20T02:57:48.441Z,3.88
2019-06-20T03:07:48.508Z,2.80
2019-06-20T03:17:48.558Z,3.11
2019-06-20T03:27:48.532Z,3.19
2019-06-20T03:37:50.310Z,2.61
2019-06-20T03:47:48.523Z,2.64
2019-06-20T03:57:48.550Z,2.47
2019-06-20T04:07:48.490Z,2.15
2019-06-20T04:17:48.584Z,2.66
2019-06-20T04:27:48.515Z,1.87
2019-06-20T04:37:48.487Z,2.48
2019-06-20T04:47:48.579Z,2.87
2019-06-20T04:57:48.536Z,2.94
2019-06-20T05:07:48.489Z,2.75
2019-06-20T05:17:48.561Z,2.46
2019-06-20T05:27:48.573Z,2.45
2019-06-20T05:37:48.602Z,2.03
2019-06-20T05:47:48.480Z,1.73
2019-06-20T05:57:48.648Z,2.33
2019-06-20T06:07:48.559Z,1.56
2019-06-20T06:17:48.518Z,1.93
2019-06-20T06:27:48.555Z,1.75
2019-06-20T06:37:48.497Z,2.30
2019-06-20T06:47:48.570Z,2.72
2019-06-20T06:57:48.559Z,1.29
2019-06-20T07:07:48.522Z,1.54
2019-06-20T07:17:48.579Z,1.94
2019-06-20T07:27:48.611Z,1.88
2019-06-20T07:37:48.657Z,0.76
2019-06-20T07:47:48.524Z,0.88
2019-06-20T07:57:48.608Z,0.69
2019-06-20T08:07:49.486Z,1.23
2019-06-20T08:17:48.537Z,0.82
2019-06-20T08:27:48.604Z,0.37
2019-06-20T08:37:48.588Z,0.50
2019-06-20T08:47:48.549Z,0.74
2019-06-20T08:57:48.615Z,1.96
2019-06-20T09:07:48.587Z,2.20
2019-06-20T09:17:48.561Z,1.65
2019-06-20T09:27:48.509Z,2.00
2019-06-20T09:37:48.490Z,2.82
2019-06-20T09:47:50.423Z,2.35
2019-06-20T09:57:49.194Z,1.65
2019-06-20T10:07:52.305Z,1.56
2019-06-20T10:17:48.645Z,0.87
2019-06-20T10:27:49.703Z,0.76
2019-06-20T10:37:48.668Z,0.83
2019-06-20T10:47:48.997Z,1.19
2019-06-20T10:57:49.802Z,2.23
2019-06-20T11:07:49.895Z,0.44
2019-06-20T11:17:49.623Z,0.92
2019-06-20T11:27:48.657Z,1.35
2019-06-20T11:37:48.770Z,1.93
2019-06-20T11:47:48.724Z,1.73
2019-06-20T11:57:48.666Z,1.57
2019-06-20T12:07:49.913Z,1.63
2019-06-20T12:17:49.282Z,1.28
2019-06-20T12:27:49.729Z,1.51
2019-06-20T12:37:50.033Z,0.91
2019-06-20T12:47:49.988Z,1.75
2019-06-20T12:57:48.750Z,1.49
2019-06-20T13:07:50.356Z,1.32
2019-06-20T13:17:49.036Z,3.22
2019-06-20T13:27:50.209Z,2.16
2019-06-20T13:37:49.723Z,2.57
2019-06-20T13:47:49.939Z,1.95
2019-06-20T13:57:49.223Z,2.48
2019-06-20T14:07:51.874Z,2.39
2019-06-20T14:17:49.608Z,1.53
2019-06-20T14:27:49.092Z,1.55
2019-06-20T14:37:49.594Z,2.01
2019-06-20T14:47:48.725Z,2.38
2019-06-20T14:57:50.282Z,3.05
2019-06-20T15:07:49.636Z,2.09
2019-06-20T15:17:51.787Z,1.99
2019-06-20T15:27:49.754Z,3.09
2019-06-20T15:37:49.790Z,3.85
2019-06-20T15:47:48.730Z,3.15
2019-06-20T15:57:48.709Z,3.04
2019-06-20T16:07:48.731Z,3.31
2019-06-20T16:17:48.704Z,2.29
2019-06-20T16:27:48.682Z,3.60
2019-06-20T16:37:48.721Z,2.84
2019-06-20T16:47:48.701Z,3.24
2019-06-20T16:57:48.684Z,2.95
2019-06-20T17:07:48.765Z,3.08
2019-06-20T17:17:48.715Z,3.32
2019-06-20T17:27:48.761Z,3.12
2019-06-20T17:37:48.691Z,2.00
2019-06-20T17:47:48.748Z,1.22
2019-06-20T17:57:48.717Z,0.72
2019-06-20T18:07:48.780Z,0.54
2019-06-20T18:17:48.749Z,0.33
2019-06-20T18:27:48.751Z,0.93
2019-06-20T18:37:48.681Z,0.47
2019-06-20T18:47:48.856Z,0.64
2019-06-20T18:57:48.760Z,0.76
2019-06-20T19:07:48.675Z,0.70
2019-06-20T19:17:48.959Z,0.28
2019-06-20T19:27:48.846Z,0.33
2019-06-20T19:37:48.789Z,0.08
2019-06-20T19:47:48.734Z,0.12
2019-06-20T19:57:48.885Z,0.15
2019-06-20T20:07:48.793Z,0.18
2019-06-20T20:17:48.735Z,0.01
2019-06-20T20:27:48.735Z,0.22
2019-06-20T20:37:48.883Z,0.99
2019-06-20T20:47:48.755Z,0.39
2019-06-20T20:57:48.736Z,0.04
2019-06-20T21:07:48.813Z,0.45
2019-06-20T21:17:48.729Z,1.16
2019-06-20T21:27:48.717Z,1.40
2019-06-20T21:37:48.797Z,1.89
2019-06-20T21:47:48.719Z,1.46
2019-06-20T21:57:48.818Z,1.41
2019-06-20T22:07:48.900Z,1.88
2019-06-20T22:17:48.756Z,1.34
2019-06-20T22:27:48.735Z,0.90
2019-06-20T22:37:48.802Z,1.45
2019-06-20T22:47:48.981Z,1.95
2019-06-20T22:57:48.736Z,1.68
2019-06-20T23:07:48.811Z,1.71
2019-06-20T23:17:48.756Z,1.84
2019-06-20T23:27:48.764Z,1.83
2019-06-20T23:37:48.799Z,1.45
2019-06-20T23:47:48.874Z,1.57
2019-06-20T23:57:48.728Z,1.12
